createdAt,value
2023-05-12T00:00:52.564Z,3.03
2023-05-12T00:03:20.685Z,2.30
2023-05-12T00:05:48.815Z,3.17
2023-05-12T00:08:17.173Z,3.03
2023-05-12T00:10:45.131Z,2.80
2023-05-12T00:13:14.585Z,3.37
2023-05-12T00:15:42.750Z,6.43
2023-05-12T00:18:10.725Z,2.60
2023-05-12T00:20:39.644Z,5.87
2023-05-12T00:23:07.567Z,3.40
2023-05-12T00:25:35.662Z,2.93
2023-05-12T00:28:03.764Z,4.07
2023-05-12T00:30:33.382Z,2.83
2023-05-12T00:33:01.479Z,3.00
2023-05-12T00:35:29.682Z,2.93
2023-05-12T00:37:57.659Z,6.63
2023-05-12T00:40:25.830Z,3.67
2023-05-12T00:42:53.760Z,3.00
2023-05-12T00:45:22.035Z,2.07
2023-05-12T00:47:53.733Z,3.23
2023-05-12T00:50:22.732Z,2.77
2023-05-12T00:52:51.046Z,3.00
2023-05-12T00:55:19.122Z,3.00
2023-05-12T00:57:47.093Z,3.37
2023-05-12T01:00:15.848Z,6.30
2023-05-12T01:02:44.259Z,3.30
2023-05-12T01:05:13.905Z,2.70
2023-05-12T01:07:43.115Z,3.23
2023-05-12T01:10:21.557Z,3.40
2023-05-12T01:12:49.746Z,3.37
2023-05-12T01:15:19.173Z,3.40
2023-05-12T01:17:53.427Z,3.40
2023-05-12T01:20:26.734Z,3.37
2023-05-12T01:22:56.334Z,5.83
2023-05-12T01:25:25.450Z,4.17
2023-05-12T01:27:55.467Z,3.67
2023-05-12T01:30:25.831Z,4.23
2023-05-12T01:32:54.679Z,4.37
2023-05-12T01:35:22.559Z,4.53
2023-05-12T01:37:50.667Z,4.63
2023-05-12T01:40:18.952Z,4.10
2023-05-12T01:42:46.984Z,5.37
2023-05-12T01:45:16.281Z,4.10
2023-05-12T01:47:44.569Z,5.57
2023-05-12T01:50:12.465Z,6.17
2023-05-12T01:52:40.515Z,5.90
2023-05-12T01:55:09.454Z,4.87
2023-05-12T01:57:37.364Z,4.53
2023-05-12T02:00:05.937Z,4.43
2023-05-12T02:02:35.475Z,6.40
2023-05-12T02:05:03.826Z,5.53
2023-05-12T02:07:31.642Z,7.47
2023-05-12T02:09:59.792Z,5.07
2023-05-12T02:12:27.778Z,5.60
2023-05-12T02:14:55.709Z,4.53
2023-05-12T02:17:25.346Z,3.53
2023-05-12T02:19:54.625Z,4.93
2023-05-12T02:22:22.583Z,4.80
2023-05-12T02:24:50.658Z,4.80
2023-05-12T02:27:18.572Z,6.37
2023-05-12T02:29:46.865Z,5.53
2023-05-12T02:32:14.752Z,5.17
2023-05-12T02:34:42.670Z,5.23
2023-05-12T02:37:11.993Z,5.20
2023-05-12T02:39:39.929Z,6.67
2023-05-12T02:42:08.706Z,8.20
2023-05-12T02:44:36.641Z,7.17
2023-05-12T02:47:04.938Z,7.13
2023-05-12T02:49:33.188Z,9.37
2023-05-12T02:52:01.014Z,9.03
2023-05-12T02:54:30.465Z,8.23
2023-05-12T02:56:58.337Z,6.60
2023-05-12T02:59:26.390Z,6.50
2023-05-12T03:01:54.385Z,7.53
2023-05-12T03:04:22.413Z,6.23
2023-05-12T03:06:50.586Z,7.10
2023-05-12T03:09:18.508Z,7.40
2023-05-12T03:11:47.727Z,7.80
2023-05-12T03:14:15.606Z,7.20
2023-05-12T03:16:43.635Z,9.70
2023-05-12T03:19:11.743Z,7.47
2023-05-12T03:21:39.860Z,8.13
2023-05-12T03:24:08.567Z,9.27
2023-05-12T03:26:36.401Z,8.97
2023-05-12T03:29:05.842Z,7.73
2023-05-12T03:31:33.813Z,6.90
2023-05-12T03:34:01.664Z,7.43
2023-05-12T03:36:29.611Z,8.93
2023-05-12T03:38:57.633Z,8.77
2023-05-12T03:41:25.620Z,7.70
2023-05-12T03:43:53.556Z,11.93
2023-05-12T03:46:23.278Z,7.33
2023-05-12T03:48:51.205Z,6.60
2023-05-12T03:51:19.061Z,7.53
2023-05-12T03:53:47.899Z,9.77
2023-05-12T03:56:17.078Z,7.80
2023-05-12T03:58:46.498Z,9.50
2023-05-12T04:01:14.793Z,7.17
2023-05-12T04:03:44.257Z,8.00
2023-05-12T04:06:12.197Z,7.20
2023-05-12T04:08:41.938Z,7.53
2023-05-12T04:11:10.771Z,6.80
2023-05-12T04:13:38.680Z,8.03
2023-05-12T04:16:07.362Z,7.23
2023-05-12T04:18:35.872Z,6.03
2023-05-12T04:21:05.584Z,6.73
2023-05-12T04:23:33.615Z,7.70
2023-05-12T04:26:05.286Z,7.57
2023-05-12T04:28:33.228Z,7.67
2023-05-12T04:31:04.662Z,6.17
2023-05-12T04:33:32.834Z,5.60
2023-05-12T04:36:00.877Z,6.70
2023-05-12T04:38:30.243Z,5.40
2023-05-12T04:41:01.885Z,7.80
2023-05-12T04:46:01.555Z,7.97
2023-05-12T04:48:29.775Z,6.83
2023-05-12T04:50:59.641Z,6.73
2023-05-12T04:53:27.638Z,7.10
2023-05-12T04:55:56.886Z,6.93
2023-05-12T04:58:24.773Z,7.70
2023-05-12T05:00:53.050Z,7.10
2023-05-12T05:03:21.383Z,9.37
2023-05-12T05:05:49.357Z,6.27
2023-05-12T05:08:17.210Z,6.40
2023-05-12T05:10:45.386Z,6.43
2023-05-12T05:13:14.897Z,6.60
2023-05-12T05:15:51.077Z,6.40
2023-05-12T05:18:21.124Z,8.93
2023-05-12T05:20:58.012Z,6.53
2023-05-12T05:23:26.930Z,7.80
2023-05-12T05:25:54.873Z,9.10
2023-05-12T05:28:24.129Z,10.37
2023-05-12T05:30:52.837Z,7.67
2023-05-12T05:33:21.360Z,10.13
2023-05-12T05:35:49.578Z,8.83
2023-05-12T05:38:17.692Z,7.93
2023-05-12T05:40:52.975Z,11.03
2023-05-12T05:43:21.978Z,7.60
2023-05-12T05:45:51.522Z,9.63
2023-05-12T05:48:19.557Z,7.70
2023-05-12T05:50:47.588Z,8.53
2023-05-12T05:53:15.605Z,7.37
2023-05-12T05:55:43.537Z,7.30
2023-05-12T05:58:11.712Z,7.07
2023-05-12T06:00:39.835Z,10.97
2023-05-12T06:03:09.375Z,7.57
2023-05-12T06:05:37.633Z,8.13
2023-05-12T06:08:08.954Z,6.07
2023-05-12T06:10:36.951Z,5.73
2023-05-12T06:13:04.948Z,7.40
2023-05-12T06:15:33.049Z,6.90
2023-05-12T06:18:00.993Z,6.93
2023-05-12T06:20:30.220Z,8.07
2023-05-12T06:22:58.074Z,7.43
2023-05-12T06:25:25.980Z,6.77
2023-05-12T06:27:53.935Z,4.33
2023-05-12T06:30:21.769Z,7.37
2023-05-12T06:32:50.003Z,6.63
2023-05-12T06:35:18.257Z,8.10
2023-05-12T06:37:49.848Z,8.23
2023-05-12T06:40:18.397Z,6.70
2023-05-12T06:42:46.336Z,5.87
2023-05-12T06:45:14.515Z,6.87
2023-05-12T06:47:42.616Z,7.83
2023-05-12T06:50:10.785Z,6.83
2023-05-12T06:52:38.692Z,7.53
2023-05-12T06:55:08.733Z,8.43
2023-05-12T06:57:36.704Z,8.13
2023-05-12T07:00:05.059Z,5.60
2023-05-12T07:02:32.961Z,6.63
2023-05-12T07:05:00.834Z,5.00
2023-05-12T07:07:28.725Z,8.63
2023-05-12T07:09:56.840Z,6.30
2023-05-12T07:12:26.108Z,7.00
2023-05-12T07:14:54.042Z,7.73
2023-05-12T07:17:22.223Z,6.23
2023-05-12T07:19:50.158Z,6.67
2023-05-12T07:22:18.186Z,6.97
2023-05-12T07:24:46.154Z,8.47
2023-05-12T07:27:14.085Z,7.87
2023-05-12T07:29:43.331Z,5.63
2023-05-12T07:32:11.311Z,6.43
2023-05-12T07:34:39.362Z,6.97
2023-05-12T07:37:07.344Z,5.70
2023-05-12T07:39:35.321Z,7.07
2023-05-12T07:42:03.334Z,4.93
2023-05-12T07:44:33.504Z,7.20
2023-05-12T07:47:03.046Z,5.53
2023-05-12T07:49:30.901Z,5.37
2023-05-12T07:51:58.919Z,8.00
2023-05-12T07:54:26.906Z,6.50
2023-05-12T07:56:54.761Z,5.20
2023-05-12T07:59:22.755Z,5.10
2023-05-12T08:01:50.830Z,6.43
2023-05-12T08:04:20.238Z,5.97
2023-05-12T08:06:48.149Z,7.93
2023-05-12T08:09:16.069Z,7.60
2023-05-12T08:11:46.602Z,9.07
2023-05-12T08:14:15.544Z,4.50
2023-05-12T08:16:45.572Z,4.97
2023-05-12T08:19:13.937Z,4.83
2023-05-12T08:21:43.315Z,7.07
2023-05-12T08:24:11.282Z,6.63
2023-05-12T08:26:39.115Z,6.00
2023-05-12T08:29:08.767Z,6.37
2023-05-12T08:31:37.870Z,5.57
2023-05-12T08:34:11.074Z,5.03
2023-05-12T08:36:39.744Z,5.37
2023-05-12T08:39:10.249Z,4.10
2023-05-12T08:41:44.536Z,6.70
2023-05-12T08:44:13.329Z,6.10
2023-05-12T08:46:41.917Z,5.33
2023-05-12T08:49:15.935Z,4.70
2023-05-12T08:51:54.446Z,4.63
2023-05-12T08:54:29.007Z,4.50
2023-05-12T08:59:28.714Z,12.37
2023-05-12T09:01:57.575Z,4.03
2023-05-12T09:04:25.610Z,4.50
2023-05-12T09:06:55.972Z,4.53
2023-05-12T09:09:26.565Z,4.30
2023-05-12T09:11:58.239Z,4.97
2023-05-12T09:14:27.058Z,4.00
2023-05-12T09:17:05.850Z,4.20
2023-05-12T09:19:34.535Z,5.57
2023-05-12T09:22:02.587Z,3.13
2023-05-12T09:24:38.789Z,3.00
2023-05-12T09:27:07.604Z,3.57
2023-05-12T09:29:45.084Z,4.93
2023-05-12T09:32:19.845Z,3.53
2023-05-12T09:34:52.581Z,4.17
2023-05-12T09:37:20.470Z,6.43
2023-05-12T09:40:00.643Z,5.57
2023-05-12T09:42:31.006Z,6.40
2023-05-12T09:45:01.237Z,6.60
2023-05-12T09:47:30.120Z,7.00
2023-05-12T09:49:59.415Z,5.90
2023-05-12T09:52:27.366Z,8.70
2023-05-12T09:54:56.674Z,6.80
2023-05-12T09:57:26.687Z,6.70
2023-05-12T09:59:55.394Z,5.47
2023-05-12T10:02:23.655Z,6.47
2023-05-12T10:04:56.612Z,4.80
2023-05-12T10:07:27.612Z,5.57
2023-05-12T10:10:00.598Z,6.40
2023-05-12T10:12:29.288Z,4.67
2023-05-12T10:14:58.103Z,5.23
2023-05-12T10:17:27.898Z,5.10
2023-05-12T10:19:56.366Z,7.57
2023-05-12T10:22:25.625Z,4.20
2023-05-12T10:24:58.269Z,4.73
2023-05-12T10:27:26.502Z,4.20
2023-05-12T10:29:55.858Z,4.57
2023-05-12T10:32:23.895Z,5.87
2023-05-12T10:34:52.161Z,5.47
2023-05-12T10:37:20.131Z,4.47
2023-05-12T10:39:49.601Z,4.57
2023-05-12T10:42:25.307Z,3.93
2023-05-12T10:44:54.259Z,3.00
2023-05-12T10:47:27.056Z,7.03
2023-05-12T10:49:58.481Z,4.97
2023-05-12T10:52:26.485Z,4.87
2023-05-12T10:55:02.563Z,4.43
2023-05-12T10:57:33.946Z,3.43
2023-05-12T11:00:03.999Z,5.93
2023-05-12T11:02:35.943Z,4.80
2023-05-12T11:05:17.310Z,5.07
2023-05-12T11:07:50.086Z,3.47
2023-05-12T11:10:18.754Z,5.60
2023-05-12T11:12:49.059Z,4.00
2023-05-12T11:15:18.203Z,4.70
2023-05-12T11:17:47.401Z,3.50
2023-05-12T11:20:23.826Z,7.47
2023-05-12T11:22:51.956Z,3.20
2023-05-12T11:25:20.328Z,4.03
2023-05-12T11:27:50.922Z,5.73
2023-05-12T11:30:19.983Z,3.40
2023-05-12T11:32:48.287Z,3.23
2023-05-12T11:35:17.718Z,4.60
2023-05-12T11:37:46.989Z,3.93
2023-05-12T11:40:16.805Z,3.70
2023-05-12T11:42:48.879Z,3.63
2023-05-12T11:45:27.006Z,5.20
2023-05-12T11:48:06.240Z,3.30
2023-05-12T11:50:34.373Z,3.37
2023-05-12T11:53:02.290Z,4.37
2023-05-12T11:55:31.105Z,3.13
2023-05-12T11:58:01.109Z,2.90
2023-05-12T12:00:33.034Z,3.73
2023-05-12T12:03:12.737Z,4.47
2023-05-12T12:05:41.987Z,5.60
2023-05-12T12:08:12.626Z,3.77
2023-05-12T12:10:41.304Z,3.90
2023-05-12T12:13:09.517Z,5.63
2023-05-12T12:15:38.820Z,4.07
2023-05-12T12:18:07.145Z,4.20
2023-05-12T12:20:36.487Z,2.93
2023-05-12T12:23:04.435Z,5.07
2023-05-12T12:25:32.340Z,3.77
2023-05-12T12:28:00.204Z,3.43
2023-05-12T12:30:28.587Z,3.37
2023-05-12T12:32:58.023Z,3.77
2023-05-12T12:35:26.199Z,3.17
2023-05-12T12:37:54.093Z,3.87
2023-05-12T12:40:22.205Z,4.40
2023-05-12T12:42:50.164Z,3.23
2023-05-12T12:45:20.296Z,3.97
2023-05-12T12:47:48.556Z,4.33
2023-05-12T12:50:18.269Z,4.40
2023-05-12T12:52:46.104Z,4.83
2023-05-12T12:55:14.150Z,4.27
2023-05-12T12:57:42.107Z,2.90
2023-05-12T13:00:11.028Z,2.93
2023-05-12T13:02:39.092Z,4.27
2023-05-12T13:05:08.324Z,3.60
2023-05-12T13:07:37.743Z,3.00
2023-05-12T13:10:06.130Z,3.43
2023-05-12T13:12:34.268Z,5.90
2023-05-12T13:15:03.084Z,5.90
2023-05-12T13:17:31.089Z,6.27
2023-05-12T13:19:59.754Z,3.03
2023-05-12T13:22:28.979Z,4.53
2023-05-12T13:24:58.389Z,5.67
2023-05-12T13:27:26.280Z,5.07
2023-05-12T13:29:54.126Z,3.07
2023-05-12T13:32:22.072Z,3.20
2023-05-12T13:34:49.988Z,3.33
2023-05-12T13:37:17.870Z,3.60
2023-05-12T13:39:45.696Z,4.53
2023-05-12T13:42:15.460Z,3.73
2023-05-12T13:44:43.525Z,4.40
2023-05-12T13:47:11.484Z,3.77
2023-05-12T13:49:39.394Z,3.80
2023-05-12T13:52:08.189Z,4.73
2023-05-12T13:54:36.043Z,4.50
2023-05-12T13:57:04.204Z,5.93
2023-05-12T13:59:33.551Z,6.23
2023-05-12T14:02:01.619Z,3.80
2023-05-12T14:04:29.750Z,3.93
2023-05-12T14:06:57.710Z,4.03
2023-05-12T14:09:26.457Z,3.90
2023-05-12T14:11:54.513Z,4.37
2023-05-12T14:14:22.425Z,4.87
2023-05-12T14:16:51.742Z,5.13
2023-05-12T14:19:19.698Z,3.97
2023-05-12T14:21:47.629Z,4.90
2023-05-12T14:24:15.651Z,4.40
2023-05-12T14:26:43.550Z,4.60
2023-05-12T14:29:11.398Z,4.53
2023-05-12T14:31:39.526Z,4.47
2023-05-12T14:34:09.442Z,6.03
2023-05-12T14:36:37.399Z,4.40
2023-05-12T14:39:05.597Z,4.53
2023-05-12T14:41:34.064Z,4.30
2023-05-12T14:44:02.124Z,4.87
2023-05-12T14:46:29.945Z,6.13
2023-05-12T14:48:58.067Z,4.30
2023-05-12T14:51:27.288Z,3.77
2023-05-12T14:53:55.204Z,4.93
2023-05-12T14:56:23.106Z,4.00
2023-05-12T14:58:51.712Z,5.10
2023-05-12T15:01:19.611Z,6.53
2023-05-12T15:03:47.767Z,6.67
2023-05-12T15:06:16.516Z,6.20
2023-05-12T15:08:45.872Z,4.80
2023-05-12T15:11:13.957Z,6.20
2023-05-12T15:13:41.915Z,5.60
2023-05-12T15:16:10.514Z,4.97
2023-05-12T15:18:38.590Z,5.70
2023-05-12T15:21:06.600Z,8.47
2023-05-12T15:23:34.632Z,4.13
2023-05-12T15:26:27.220Z,5.33
2023-05-12T15:28:56.144Z,3.80
2023-05-12T15:31:24.579Z,5.77
2023-05-12T15:33:53.140Z,4.57
2023-05-12T15:36:20.957Z,4.23
2023-05-12T15:38:48.935Z,4.20
2023-05-12T15:41:18.179Z,4.83
2023-05-12T15:43:46.034Z,6.33
2023-05-12T15:46:13.990Z,6.03
2023-05-12T15:48:41.872Z,6.57
2023-05-12T15:51:09.739Z,6.63
2023-05-12T15:53:38.020Z,4.20
2023-05-12T15:56:07.278Z,5.80
2023-05-12T15:58:36.497Z,4.30
2023-05-12T16:01:04.525Z,9.53
2023-05-12T16:03:32.970Z,4.83
2023-05-12T16:06:00.930Z,6.53
2023-05-12T16:08:28.878Z,4.63
2023-05-12T16:10:56.838Z,3.70
2023-05-12T16:13:24.788Z,4.00
2023-05-12T16:15:54.345Z,4.87
2023-05-12T16:18:22.303Z,3.60
2023-05-12T16:20:50.180Z,3.87
2023-05-12T16:23:18.038Z,4.73
2023-05-12T16:25:46.427Z,5.00
2023-05-12T16:28:14.676Z,3.50
2023-05-12T16:30:42.828Z,5.70
2023-05-12T16:33:12.945Z,5.10
2023-05-12T16:35:41.014Z,5.97
2023-05-12T16:38:09.108Z,4.97
2023-05-12T16:40:36.956Z,2.97
2023-05-12T16:43:04.820Z,3.30
2023-05-12T16:45:33.021Z,9.00
2023-05-12T16:48:00.974Z,5.20
2023-05-12T16:50:30.312Z,3.53
2023-05-12T16:52:58.220Z,3.50
2023-05-12T16:55:26.204Z,5.47
2023-05-12T16:57:54.098Z,3.23
2023-05-12T17:00:22.451Z,3.43
2023-05-12T17:02:50.604Z,3.33
2023-05-12T17:05:18.758Z,4.07
2023-05-12T17:07:48.333Z,3.50
2023-05-12T17:10:16.374Z,3.93
2023-05-12T17:12:44.298Z,4.07
2023-05-12T17:15:13.066Z,5.87
2023-05-12T17:17:40.887Z,3.30
2023-05-12T17:20:09.724Z,6.20
2023-05-12T17:22:41.679Z,3.30
2023-05-12T17:25:11.994Z,3.27
2023-05-12T17:27:39.901Z,3.40
2023-05-12T17:30:09.329Z,4.07
2023-05-12T17:32:37.536Z,4.43
2023-05-12T17:35:05.999Z,3.40
2023-05-12T17:37:34.021Z,4.13
2023-05-12T17:40:02.475Z,4.93
2023-05-12T17:42:31.946Z,4.20
2023-05-12T17:44:59.960Z,6.17
2023-05-12T17:47:28.306Z,8.87
2023-05-12T17:49:56.609Z,6.23
2023-05-12T17:52:24.598Z,6.17
2023-05-12T17:54:55.754Z,6.30
2023-05-12T17:57:23.812Z,3.90
2023-05-12T17:59:53.247Z,5.23
2023-05-12T18:02:21.175Z,5.27
2023-05-12T18:04:49.256Z,11.10
2023-05-12T18:07:17.513Z,5.50
2023-05-12T18:09:45.736Z,8.70
2023-05-12T18:12:14.046Z,5.30
2023-05-12T18:14:41.955Z,7.23
2023-05-12T18:17:11.884Z,9.63
2023-05-12T18:19:39.826Z,9.13
2023-05-12T18:22:07.775Z,12.60
2023-05-12T18:24:35.810Z,7.00
2023-05-12T18:27:06.307Z,6.53
2023-05-12T18:29:34.481Z,9.60
2023-05-12T18:32:02.790Z,8.83
2023-05-12T18:34:32.062Z,7.87
2023-05-12T18:37:00.062Z,5.97
2023-05-12T18:39:27.952Z,16.53
2023-05-12T18:41:56.243Z,5.23
2023-05-12T18:44:24.269Z,4.47
2023-05-12T18:46:52.272Z,4.60
2023-05-12T18:49:20.223Z,4.77
2023-05-12T18:51:49.567Z,5.73
2023-05-12T18:54:17.394Z,5.43
2023-05-12T18:56:47.351Z,9.27
2023-05-12T18:59:15.380Z,7.97
2023-05-12T19:01:43.369Z,7.80
2023-05-12T19:04:11.674Z,7.97
2023-05-12T19:06:39.570Z,6.03
2023-05-12T19:09:08.810Z,6.30
2023-05-12T19:11:36.650Z,5.10
2023-05-12T19:14:04.613Z,5.50
2023-05-12T19:16:34.383Z,3.67
2023-05-12T19:19:03.083Z,9.57
2023-05-12T19:21:32.438Z,7.37
2023-05-12T19:24:01.209Z,8.03
2023-05-12T19:26:30.867Z,8.93
2023-05-12T19:29:00.501Z,8.80
2023-05-12T19:31:28.542Z,8.07
2023-05-12T19:33:56.576Z,9.43
2023-05-12T19:36:24.662Z,9.90
2023-05-12T19:38:52.650Z,9.50
2023-05-12T19:41:20.472Z,12.60
2023-05-12T19:43:49.851Z,9.47
2023-05-12T19:46:18.052Z,10.50
2023-05-12T19:48:46.175Z,7.23
2023-05-12T19:51:14.500Z,10.53
2023-05-12T19:53:43.175Z,10.23
2023-05-12T19:56:11.409Z,8.63
2023-05-12T19:58:39.498Z,9.57
2023-05-12T20:01:08.863Z,10.73
2023-05-12T20:03:36.827Z,7.07
2023-05-12T20:06:05.933Z,9.33
2023-05-12T20:08:33.802Z,7.97
2023-05-12T20:11:01.611Z,12.27
2023-05-12T20:13:29.483Z,9.50
2023-05-12T20:15:57.303Z,13.00
2023-05-12T20:18:28.541Z,11.90
2023-05-12T20:20:56.608Z,8.63
2023-05-12T20:23:24.799Z,7.50
2023-05-12T20:25:53.352Z,7.13
2023-05-12T20:28:22.566Z,6.47
2023-05-12T20:30:50.614Z,6.30
2023-05-12T20:33:18.636Z,6.87
2023-05-12T20:35:48.084Z,6.70
2023-05-12T20:38:15.904Z,5.50
2023-05-12T20:40:43.828Z,7.40
2023-05-12T20:43:13.636Z,8.57
2023-05-12T20:45:42.623Z,8.07
2023-05-12T20:48:10.685Z,8.93
2023-05-12T20:50:38.638Z,6.53
2023-05-12T20:53:07.826Z,7.03
2023-05-12T20:55:35.734Z,8.83
2023-05-12T20:58:03.947Z,10.53
2023-05-12T21:00:31.837Z,8.80
2023-05-12T21:03:00.249Z,11.97
2023-05-12T21:05:28.237Z,8.13
2023-05-12T21:07:56.176Z,10.17
2023-05-12T21:10:25.762Z,7.53
2023-05-12T21:12:53.698Z,7.50
2023-05-12T21:15:21.577Z,7.63
2023-05-12T21:17:49.696Z,6.80
2023-05-12T21:20:17.994Z,6.80
2023-05-12T21:22:45.985Z,8.67
2023-05-12T21:25:13.977Z,7.67
2023-05-12T21:27:43.329Z,6.80
2023-05-12T21:30:11.973Z,7.57
2023-05-12T21:32:40.430Z,5.93
2023-05-12T21:35:09.601Z,4.80
2023-05-12T21:37:37.890Z,6.13
2023-05-12T21:40:06.901Z,6.03
2023-05-12T21:42:34.985Z,5.27
2023-05-12T21:45:04.364Z,5.73
2023-05-12T21:47:32.226Z,7.00
2023-05-12T21:50:00.172Z,6.20
2023-05-12T21:52:28.285Z,7.03
2023-05-12T21:54:56.108Z,8.03
2023-05-12T21:57:23.986Z,8.53
2023-05-12T21:59:51.800Z,8.23
2023-05-12T22:02:21.237Z,4.53
2023-05-12T22:04:49.405Z,7.53
2023-05-12T22:07:17.294Z,4.97
2023-05-12T22:09:45.110Z,4.90
2023-05-12T22:12:15.639Z,5.53
2023-05-12T22:14:43.565Z,6.80
2023-05-12T22:17:11.519Z,5.50
2023-05-12T22:19:41.115Z,3.07
2023-05-12T22:22:08.971Z,5.83
2023-05-12T22:24:36.884Z,3.17
2023-05-12T22:27:05.074Z,4.10
2023-05-12T22:29:32.924Z,4.00
2023-05-12T22:32:01.014Z,3.87
2023-05-12T22:34:29.359Z,3.33
2023-05-12T22:36:58.673Z,4.23
2023-05-12T22:39:26.530Z,2.93
2023-05-12T22:41:54.680Z,5.53
2023-05-12T22:44:22.556Z,2.53
2023-05-12T22:46:50.438Z,2.43
2023-05-12T22:49:18.381Z,4.23
2023-05-12T22:51:46.295Z,2.37
2023-05-12T22:54:15.808Z,3.77
2023-05-12T22:56:44.874Z,3.50
2023-05-12T22:59:12.765Z,5.00
2023-05-12T23:01:40.688Z,4.07
2023-05-12T23:04:08.666Z,4.43
2023-05-12T23:06:36.530Z,4.77
2023-05-12T23:09:04.502Z,4.93
2023-05-12T23:11:35.704Z,3.57
2023-05-12T23:14:03.565Z,3.03
2023-05-12T23:16:31.480Z,3.43
2023-05-12T23:18:59.450Z,3.23
2023-05-12T23:21:27.348Z,7.70
2023-05-12T23:23:55.215Z,3.57
2023-05-12T23:26:23.160Z,2.70
2023-05-12T23:28:52.370Z,3.63
2023-05-12T23:31:20.263Z,4.27
2023-05-12T23:33:48.715Z,6.00
2023-05-12T23:36:16.591Z,5.00
2023-05-12T23:38:44.467Z,3.00
2023-05-12T23:41:12.390Z,4.47
2023-05-12T23:43:40.281Z,3.43
2023-05-12T23:46:09.520Z,4.13
2023-05-12T23:48:37.798Z,2.57
2023-05-12T23:51:05.871Z,2.27
2023-05-12T23:53:33.747Z,2.70
2023-05-12T23:56:02.688Z,3.33
2023-05-12T23:58:30.620Z,2.33
